sensor_id;sensor_type;location;lat;lon;timestamp;pressure;altitude;pressure_sealevel;temperature;humidity
84528;BME280;74768;51.152;6.196;2024-01-07T00:02:12;100976.81;;;1.53;96.56
84528;BME280;74768;51.152;6.196;2024-01-07T00:04:39;100974.19;;;1.48;96.77
84528;BME280;74768;51.152;6.196;2024-01-07T00:07:05;100983.75;;;1.45;97.04
84528;BME280;74768;51.152;6.196;2024-01-07T00:09:30;100976.81;;;1.45;97.25
84528;BME280;74768;51.152;6.196;2024-01-07T00:11:56;100980.28;;;1.50;97.21
84528;BME280;74768;51.152;6.196;2024-01-07T00:14:21;100987.19;;;1.48;97.09
84528;BME280;74768;51.152;6.196;2024-01-07T00:16:46;100983.72;;;1.48;97.26
84528;BME280;74768;51.152;6.196;2024-01-07T00:19:12;100986.34;;;1.49;97.08
84528;BME280;74768;51.152;6.196;2024-01-07T00:21:37;100981.16;;;1.52;97.36
84528;BME280;74768;51.152;6.196;2024-01-07T00:24:02;100987.22;;;1.53;97.41
84528;BME280;74768;51.152;6.196;2024-01-07T00:26:28;100996.72;;;1.54;97.65
84528;BME280;74768;51.152;6.196;2024-01-07T00:28:53;100992.41;;;1.50;96.90
84528;BME280;74768;51.152;6.196;2024-01-07T00:31:19;100992.38;;;1.47;96.96
84528;BME280;74768;51.152;6.196;2024-01-07T00:33:45;100994.13;;;1.48;97.49
84528;BME280;74768;51.152;6.196;2024-01-07T00:36:10;101004.53;;;1.51;97.26
84528;BME280;74768;51.152;6.196;2024-01-07T00:38:35;100998.47;;;1.41;96.93
84528;BME280;74768;51.152;6.196;2024-01-07T00:41:01;100998.44;;;1.34;97.51
84528;BME280;74768;51.152;6.196;2024-01-07T00:43:26;100996.72;;;1.33;97.70
84528;BME280;74768;51.152;6.196;2024-01-07T00:45:51;100989.81;;;1.38;98.23
84528;BME280;74768;51.152;6.196;2024-01-07T00:48:16;100999.34;;;1.36;98.07
84528;BME280;74768;51.152;6.196;2024-01-07T00:50:42;100994.13;;;1.40;97.60
84528;BME280;74768;51.152;6.196;2024-01-07T00:53:07;100999.34;;;1.51;97.60
84528;BME280;74768;51.152;6.196;2024-01-07T00:55:33;100999.34;;;1.60;97.22
84528;BME280;74768;51.152;6.196;2024-01-07T00:58:00;101005.38;;;1.62;97.26
84528;BME280;74768;51.152;6.196;2024-01-07T01:00:26;101010.63;;;1.51;97.45
84528;BME280;74768;51.152;6.196;2024-01-07T01:02:52;101012.34;;;1.48;97.37
84528;BME280;74768;51.152;6.196;2024-01-07T01:05:17;101013.22;;;1.44;97.59
84528;BME280;74768;51.152;6.196;2024-01-07T01:07:43;101017.53;;;1.51;97.32
84528;BME280;74768;51.152;6.196;2024-01-07T01:10:08;101016.69;;;1.46;97.46
84528;BME280;74768;51.152;6.196;2024-01-07T01:12:34;101023.59;;;1.42;97.79
84528;BME280;74768;51.152;6.196;2024-01-07T01:14:59;101021.00;;;1.42;97.92
84528;BME280;74768;51.152;6.196;2024-01-07T01:17:25;101031.38;;;1.39;98.41
84528;BME280;74768;51.152;6.196;2024-01-07T01:19:50;101036.59;;;1.36;98.65
84528;BME280;74768;51.152;6.196;2024-01-07T01:22:15;101037.47;;;1.40;98.30
84528;BME280;74768;51.152;6.196;2024-01-07T01:24:40;101040.06;;;1.34;98.38
84528;BME280;74768;51.152;6.196;2024-01-07T01:27:06;101046.13;;;1.36;98.64
84528;BME280;74768;51.152;6.196;2024-01-07T01:29:31;101042.69;;;1.43;98.89
84528;BME280;74768;51.152;6.196;2024-01-07T01:31:56;101038.34;;;1.45;98.95
84528;BME280;74768;51.152;6.196;2024-01-07T01:34:22;101034.88;;;1.47;98.87
84528;BME280;74768;51.152;6.196;2024-01-07T01:36:47;101044.41;;;1.47;99.01
84528;BME280;74768;51.152;6.196;2024-01-07T01:39:13;101048.75;;;1.49;99.14
84528;BME280;74768;51.152;6.196;2024-01-07T01:41:38;101056.56;;;1.49;98.76
84528;BME280;74768;51.152;6.196;2024-01-07T01:44:04;101051.34;;;1.48;98.98
84528;BME280;74768;51.152;6.196;2024-01-07T01:46:30;101055.69;;;1.43;99.38
84528;BME280;74768;51.152;6.196;2024-01-07T01:48:55;101055.69;;;1.37;99.27
84528;BME280;74768;51.152;6.196;2024-01-07T01:51:21;101064.34;;;1.30;99.10
84528;BME280;74768;51.152;6.196;2024-01-07T01:53:47;101064.34;;;1.31;99.22
84528;BME280;74768;51.152;6.196;2024-01-07T01:56:13;101062.59;;;1.35;99.38
84528;BME280;74768;51.152;6.196;2024-01-07T01:58:38;101068.69;;;1.46;99.56
84528;BME280;74768;51.152;6.196;2024-01-07T02:01:04;101066.09;;;1.52;99.52
84528;BME280;74768;51.152;6.196;2024-01-07T02:03:29;101076.50;;;1.52;99.37
84528;BME280;74768;51.152;6.196;2024-01-07T02:05:56;101077.38;;;1.51;99.54
84528;BME280;74768;51.152;6.196;2024-01-07T02:08:22;101070.41;;;1.47;99.63
84528;BME280;74768;51.152;6.196;2024-01-07T02:10:48;101074.75;;;1.49;99.70
84528;BME280;74768;51.152;6.196;2024-01-07T02:13:13;101079.09;;;1.50;99.41
84528;BME280;74768;51.152;6.196;2024-01-07T02:15:39;101081.69;;;1.53;99.73
84528;BME280;74768;51.152;6.196;2024-01-07T02:18:04;101077.34;;;1.54;99.46
84528;BME280;74768;51.152;6.196;2024-01-07T02:20:30;101073.91;;;1.56;99.53
84528;BME280;74768;51.152;6.196;2024-01-07T02:22:55;101074.75;;;1.55;99.16
84528;BME280;74768;51.152;6.196;2024-01-07T02:25:23;101078.25;;;1.58;99.35
84528;BME280;74768;51.152;6.196;2024-01-07T02:27:48;101078.25;;;1.51;99.27
84528;BME280;74768;51.152;6.196;2024-01-07T02:30:13;101077.34;;;1.55;99.34
84528;BME280;74768;51.152;6.196;2024-01-07T02:32:39;101079.09;;;1.52;99.41
84528;BME280;74768;51.152;6.196;2024-01-07T02:35:05;101088.63;;;1.54;99.62
84528;BME280;74768;51.152;6.196;2024-01-07T02:37:30;101081.69;;;1.55;99.26
84528;BME280;74768;51.152;6.196;2024-01-07T02:39:56;101085.19;;;1.60;99.46
84528;BME280;74768;51.152;6.196;2024-01-07T02:42:21;101086.06;;;1.59;99.46
84528;BME280;74768;51.152;6.196;2024-01-07T02:44:46;101086.06;;;1.59;99.22
84528;BME280;74768;51.152;6.196;2024-01-07T02:47:11;101090.38;;;1.59;99.20
84528;BME280;74768;51.152;6.196;2024-01-07T02:49:37;101087.78;;;1.57;98.76
84528;BME280;74768;51.152;6.196;2024-01-07T02:52:02;101089.50;;;1.49;98.64
84528;BME280;74768;51.152;6.196;2024-01-07T02:54:28;101092.09;;;1.53;98.51
84528;BME280;74768;51.152;6.196;2024-01-07T02:56:53;101099.91;;;1.52;98.15
84528;BME280;74768;51.152;6.196;2024-01-07T02:59:18;101100.75;;;1.48;98.53
84528;BME280;74768;51.152;6.196;2024-01-07T03:01:43;101102.50;;;1.44;98.20
84528;BME280;74768;51.152;6.196;2024-01-07T03:04:10;101100.75;;;1.48;98.17
84528;BME280;74768;51.152;6.196;2024-01-07T03:06:36;101100.78;;;1.51;98.45
84528;BME280;74768;51.152;6.196;2024-01-07T03:09:01;101101.66;;;1.53;98.30
84528;BME280;74768;51.152;6.196;2024-01-07T03:11:26;101102.50;;;1.50;98.55
84528;BME280;74768;51.152;6.196;2024-01-07T03:13:52;101105.97;;;1.48;98.24
84528;BME280;74768;51.152;6.196;2024-01-07T03:16:21;101113.75;;;1.48;98.27
84528;BME280;74768;51.152;6.196;2024-01-07T03:18:47;101106.81;;;1.44;98.58
84528;BME280;74768;51.152;6.196;2024-01-07T03:21:19;101115.50;;;1.47;98.52
84528;BME280;74768;51.152;6.196;2024-01-07T03:23:46;101108.56;;;1.45;98.22
84528;BME280;74768;51.152;6.196;2024-01-07T03:26:11;101115.47;;;1.40;98.09
84528;BME280;74768;51.152;6.196;2024-01-07T03:28:36;101111.16;;;1.42;97.98
84528;BME280;74768;51.152;6.196;2024-01-07T03:31:14;101114.59;;;1.41;97.72
84528;BME280;74768;51.152;6.196;2024-01-07T03:33:41;101116.31;;;1.33;97.15
84528;BME280;74768;51.152;6.196;2024-01-07T03:36:13;101117.19;;;1.33;97.80
84528;BME280;74768;51.152;6.196;2024-01-07T03:38:39;101120.66;;;1.29;97.96
84528;BME280;74768;51.152;6.196;2024-01-07T03:41:05;101125.88;;;1.35;97.66
84528;BME280;74768;51.152;6.196;2024-01-07T03:43:31;101125.84;;;1.32;97.50
84528;BME280;74768;51.152;6.196;2024-01-07T03:45:56;101131.91;;;1.28;97.85
84528;BME280;74768;51.152;6.196;2024-01-07T03:48:22;101131.94;;;1.30;97.75
84528;BME280;74768;51.152;6.196;2024-01-07T03:50:47;101130.19;;;1.29;97.69
84528;BME280;74768;51.152;6.196;2024-01-07T03:53:13;101127.56;;;1.32;97.53
84528;BME280;74768;51.152;6.196;2024-01-07T03:55:38;101132.81;;;1.38;97.70
84528;BME280;74768;51.152;6.196;2024-01-07T03:58:05;101131.09;;;1.38;97.53
84528;BME280;74768;51.152;6.196;2024-01-07T04:00:31;101138.00;;;1.33;97.35
84528;BME280;74768;51.152;6.196;2024-01-07T04:02:56;101142.31;;;1.27;97.42
84528;BME280;74768;51.152;6.196;2024-01-07T04:05:21;101140.56;;;1.21;97.75
84528;BME280;74768;51.152;6.196;2024-01-07T04:07:46;101144.03;;;1.20;97.75
84528;BME280;74768;51.152;6.196;2024-01-07T04:10:12;101146.63;;;1.22;97.77
84528;BME280;74768;51.152;6.196;2024-01-07T04:12:37;101143.19;;;1.30;98.00
84528;BME280;74768;51.152;6.196;2024-01-07T04:15:04;101151.00;;;1.30;97.77
84528;BME280;74768;51.152;6.196;2024-01-07T04:17:29;101149.25;;;1.29;97.54
84528;BME280;74768;51.152;6.196;2024-01-07T04:19:54;101151.88;;;1.31;97.77
84528;BME280;74768;51.152;6.196;2024-01-07T04:22:20;101152.75;;;1.36;97.28
84528;BME280;74768;51.152;6.196;2024-01-07T04:24:45;101152.72;;;1.30;97.13
84528;BME280;74768;51.152;6.196;2024-01-07T04:27:11;101160.50;;;1.27;97.59
84528;BME280;74768;51.152;6.196;2024-01-07T04:29:36;101157.91;;;1.24;97.78
84528;BME280;74768;51.152;6.196;2024-01-07T04:32:01;101159.63;;;1.26;97.66
84528;BME280;74768;51.152;6.196;2024-01-07T04:34:27;101168.25;;;1.17;97.43
84528;BME280;74768;51.152;6.196;2024-01-07T04:36:52;101166.53;;;1.18;97.92
84528;BME280;74768;51.152;6.196;2024-01-07T04:39:17;101167.41;;;1.18;98.08
84528;BME280;74768;51.152;6.196;2024-01-07T04:41:43;101164.84;;;1.23;98.51
84528;BME280;74768;51.152;6.196;2024-01-07T04:44:08;101165.72;;;1.30;98.62
84528;BME280;74768;51.152;6.196;2024-01-07T04:46:34;101170.03;;;1.25;98.14
84528;BME280;74768;51.152;6.196;2024-01-07T04:49:00;101173.50;;;1.25;98.15
84528;BME280;74768;51.152;6.196;2024-01-07T04:51:26;101173.50;;;1.21;98.40
84528;BME280;74768;51.152;6.196;2024-01-07T04:53:51;101177.81;;;1.22;98.47
84528;BME280;74768;51.152;6.196;2024-01-07T04:56:17;101184.75;;;1.20;97.84
84528;BME280;74768;51.152;6.196;2024-01-07T04:58:42;101184.75;;;1.21;98.11
84528;BME280;74768;51.152;6.196;2024-01-07T05:01:08;101186.47;;;1.17;97.76
84528;BME280;74768;51.152;6.196;2024-01-07T05:03:33;101183.00;;;1.14;97.13
84528;BME280;74768;51.152;6.196;2024-01-07T05:05:59;101181.22;;;1.10;97.34
84528;BME280;74768;51.152;6.196;2024-01-07T05:08:24;101180.41;;;1.15;97.81
84528;BME280;74768;51.152;6.196;2024-01-07T05:10:49;101185.56;;;1.12;97.72
84528;BME280;74768;51.152;6.196;2024-01-07T05:13:15;101193.41;;;1.18;98.25
84528;BME280;74768;51.152;6.196;2024-01-07T05:15:40;101190.78;;;1.18;97.89
84528;BME280;74768;51.152;6.196;2024-01-07T05:18:09;101191.69;;;1.21;97.17
84528;BME280;74768;51.152;6.196;2024-01-07T05:20:35;101199.44;;;1.17;96.65
84528;BME280;74768;51.152;6.196;2024-01-07T05:23:00;101196.88;;;1.19;96.53
84528;BME280;74768;51.152;6.196;2024-01-07T05:25:25;101202.06;;;1.17;97.18
84528;BME280;74768;51.152;6.196;2024-01-07T05:27:50;101210.72;;;1.13;96.93
84528;BME280;74768;51.152;6.196;2024-01-07T05:30:16;101208.13;;;1.13;97.23
84528;BME280;74768;51.152;6.196;2024-01-07T05:32:41;101217.66;;;1.16;97.53
84528;BME280;74768;51.152;6.196;2024-01-07T05:35:07;101218.53;;;1.16;97.64
84528;BME280;74768;51.152;6.196;2024-01-07T05:37:32;101215.06;;;1.21;97.26
84528;BME280;74768;51.152;6.196;2024-01-07T05:39:57;101221.19;;;1.24;97.43
84528;BME280;74768;51.152;6.196;2024-01-07T05:42:23;101228.94;;;1.21;97.08
84528;BME280;74768;51.152;6.196;2024-01-07T05:44:48;101229.81;;;1.20;97.39
84528;BME280;74768;51.152;6.196;2024-01-07T05:47:13;101227.22;;;1.22;96.24
84528;BME280;74768;51.152;6.196;2024-01-07T05:49:38;101231.47;;;1.10;95.79
84528;BME280;74768;51.152;6.196;2024-01-07T05:52:04;101233.22;;;1.11;95.87
84528;BME280;74768;51.152;6.196;2024-01-07T05:54:29;101235.84;;;1.13;96.65
84528;BME280;74768;51.152;6.196;2024-01-07T05:56:54;101239.25;;;1.06;96.40
84528;BME280;74768;51.152;6.196;2024-01-07T05:59:20;101251.44;;;1.13;96.33
84528;BME280;74768;51.152;6.196;2024-01-07T06:01:45;101251.44;;;1.13;95.51
84528;BME280;74768;51.152;6.196;2024-01-07T06:04:10;101249.69;;;1.09;95.66
84528;BME280;74768;51.152;6.196;2024-01-07T06:06:36;101257.47;;;1.10;95.47
84528;BME280;74768;51.152;6.196;2024-01-07T06:09:01;101262.63;;;1.04;95.63
84528;BME280;74768;51.152;6.196;2024-01-07T06:11:27;101255.69;;;1.03;96.41
84528;BME280;74768;51.152;6.196;2024-01-07T06:13:53;101259.16;;;1.02;95.56
84528;BME280;74768;51.152;6.196;2024-01-07T06:16:18;101265.22;;;1.04;95.87
84528;BME280;74768;51.152;6.196;2024-01-07T06:18:43;101265.22;;;1.01;96.17
84528;BME280;74768;51.152;6.196;2024-01-07T06:21:09;101267.84;;;1.06;95.65
84528;BME280;74768;51.152;6.196;2024-01-07T06:23:34;101276.53;;;1.06;96.88
84528;BME280;74768;51.152;6.196;2024-01-07T06:26:03;101279.94;;;0.99;95.86
84528;BME280;74768;51.152;6.196;2024-01-07T06:28:28;101277.34;;;1.04;96.06
84528;BME280;74768;51.152;6.196;2024-01-07T06:30:53;101279.91;;;0.98;96.29
84528;BME280;74768;51.152;6.196;2024-01-07T06:33:18;101286.88;;;0.99;96.82
84528;BME280;74768;51.152;6.196;2024-01-07T06:35:45;101286.91;;;1.06;96.02
84528;BME280;74768;51.152;6.196;2024-01-07T06:38:11;101294.63;;;0.96;96.07
84528;BME280;74768;51.152;6.196;2024-01-07T06:40:36;101293.81;;;1.01;96.08
84528;BME280;74768;51.152;6.196;2024-01-07T06:43:01;101295.53;;;0.99;95.88
84528;BME280;74768;51.152;6.196;2024-01-07T06:45:27;101299.00;;;0.98;96.71
84528;BME280;74768;51.152;6.196;2024-01-07T06:47:52;101302.41;;;0.91;95.92
84528;BME280;74768;51.152;6.196;2024-01-07T06:50:18;101304.13;;;0.91;96.74
84528;BME280;74768;51.152;6.196;2024-01-07T06:52:45;101311.09;;;0.93;97.23
84528;BME280;74768;51.152;6.196;2024-01-07T06:55:10;101312.78;;;0.91;96.65
84528;BME280;74768;51.152;6.196;2024-01-07T06:57:35;101314.50;;;0.89;96.01
84528;BME280;74768;51.152;6.196;2024-01-07T07:00:01;101322.22;;;0.82;96.33
84528;BME280;74768;51.152;6.196;2024-01-07T07:02:26;101326.63;;;0.87;96.47
84528;BME280;74768;51.152;6.196;2024-01-07T07:04:51;101327.44;;;0.83;95.54
84528;BME280;74768;51.152;6.196;2024-01-07T07:07:17;101336.97;;;0.83;96.44
84528;BME280;74768;51.152;6.196;2024-01-07T07:09:42;101337.78;;;0.75;95.83
84528;BME280;74768;51.152;6.196;2024-01-07T07:12:08;101340.34;;;0.74;96.00
84528;BME280;74768;51.152;6.196;2024-01-07T07:14:33;101348.19;;;0.77;96.02
84528;BME280;74768;51.152;6.196;2024-01-07T07:16:58;101352.50;;;0.76;95.71
84528;BME280;74768;51.152;6.196;2024-01-07T07:19:24;101356.81;;;0.73;96.79
84528;BME280;74768;51.152;6.196;2024-01-07T07:21:49;101365.47;;;0.73;96.76
84528;BME280;74768;51.152;6.196;2024-01-07T07:24:14;101375.78;;;0.66;97.05
84528;BME280;74768;51.152;6.196;2024-01-07T07:26:40;101374.91;;;0.64;97.20
84528;BME280;74768;51.152;6.196;2024-01-07T07:29:07;101375.78;;;0.66;97.53
84528;BME280;74768;51.152;6.196;2024-01-07T07:31:34;101375.78;;;0.66;97.35
84528;BME280;74768;51.152;6.196;2024-01-07T07:33:59;101377.44;;;0.59;97.20
84528;BME280;74768;51.152;6.196;2024-01-07T07:36:25;101391.28;;;0.55;97.60
84528;BME280;74768;51.152;6.196;2024-01-07T07:38:51;101393.91;;;0.60;97.78
84528;BME280;74768;51.152;6.196;2024-01-07T07:41:16;101397.34;;;0.59;97.51
84528;BME280;74768;51.152;6.196;2024-01-07T07:43:42;101394.75;;;0.57;97.68
84528;BME280;74768;51.152;6.196;2024-01-07T07:46:07;101403.44;;;0.58;97.75
84528;BME280;74768;51.152;6.196;2024-01-07T07:48:32;101407.78;;;0.62;98.22
84528;BME280;74768;51.152;6.196;2024-01-07T07:50:57;101416.41;;;0.58;98.14
84528;BME280;74768;51.152;6.196;2024-01-07T07:53:23;101419.00;;;0.56;97.22
84528;BME280;74768;51.152;6.196;2024-01-07T07:55:48;101415.50;;;0.54;97.55
84528;BME280;74768;51.152;6.196;2024-01-07T07:58:15;101431.94;;;0.53;97.04
84528;BME280;74768;51.152;6.196;2024-01-07T08:00:40;101438.06;;;0.61;96.94
84528;BME280;74768;51.152;6.196;2024-01-07T08:03:05;101439.78;;;0.59;97.24
84528;BME280;74768;51.152;6.196;2024-01-07T08:05:31;101432.00;;;0.61;97.45
84528;BME280;74768;51.152;6.196;2024-01-07T08:07:56;101444.09;;;0.56;96.03
84528;BME280;74768;51.152;6.196;2024-01-07T08:10:22;101440.59;;;0.54;96.23
84528;BME280;74768;51.152;6.196;2024-01-07T08:12:48;101443.22;;;0.55;95.98
84528;BME280;74768;51.152;6.196;2024-01-07T08:15:14;101453.56;;;0.54;96.08
84528;BME280;74768;51.152;6.196;2024-01-07T08:17:40;101458.75;;;0.52;96.26
84528;BME280;74768;51.152;6.196;2024-01-07T08:20:05;101462.19;;;0.51;96.16
84528;BME280;74768;51.152;6.196;2024-01-07T08:22:31;101460.56;;;0.59;96.44
84528;BME280;74768;51.152;6.196;2024-01-07T08:24:56;101466.63;;;0.58;96.21
84528;BME280;74768;51.152;6.196;2024-01-07T08:27:21;101457.94;;;0.56;95.65
84528;BME280;74768;51.152;6.196;2024-01-07T08:29:47;101474.31;;;0.52;96.06
84528;BME280;74768;51.152;6.196;2024-01-07T08:32:12;101470.84;;;0.52;96.08
84528;BME280;74768;51.152;6.196;2024-01-07T08:34:38;101465.66;;;0.52;95.52
84528;BME280;74768;51.152;6.196;2024-01-07T08:37:04;101470.06;;;0.56;96.00
84528;BME280;74768;51.152;6.196;2024-01-07T08:39:29;101471.75;;;0.54;96.04
84528;BME280;74768;51.152;6.196;2024-01-07T08:41:55;101484.75;;;0.54;95.30
84528;BME280;74768;51.152;6.196;2024-01-07T08:44:20;101471.75;;;0.54;95.33
84528;BME280;74768;51.152;6.196;2024-01-07T08:46:45;101476.09;;;0.55;95.31
84528;BME280;74768;51.152;6.196;2024-01-07T08:49:11;101478.66;;;0.50;94.58
84528;BME280;74768;51.152;6.196;2024-01-07T08:51:36;101484.78;;;0.57;94.73
84528;BME280;74768;51.152;6.196;2024-01-07T08:54:02;101482.03;;;0.45;95.02
84528;BME280;74768;51.152;6.196;2024-01-07T08:56:28;101485.53;;;0.47;95.06
84528;BME280;74768;51.152;6.196;2024-01-07T08:58:53;101490.78;;;0.53;95.25
84528;BME280;74768;51.152;6.196;2024-01-07T09:01:18;101494.22;;;0.50;94.79
84528;BME280;74768;51.152;6.196;2024-01-07T09:03:44;101499.34;;;0.43;94.57
84528;BME280;74768;51.152;6.196;2024-01-07T09:06:09;101500.19;;;0.42;95.08
84528;BME280;74768;51.152;6.196;2024-01-07T09:08:34;101497.63;;;0.46;95.24
84528;BME280;74768;51.152;6.196;2024-01-07T09:11:00;101501.06;;;0.42;95.45
84528;BME280;74768;51.152;6.196;2024-01-07T09:13:26;101499.28;;;0.39;95.68
84528;BME280;74768;51.152;6.196;2024-01-07T09:15:52;101507.09;;;0.41;95.17
84528;BME280;74768;51.152;6.196;2024-01-07T09:18:17;101510.59;;;0.43;94.54
84528;BME280;74768;51.152;6.196;2024-01-07T09:20:43;101509.75;;;0.47;94.86
84528;BME280;74768;51.152;6.196;2024-01-07T09:23:09;101506.22;;;0.41;94.36
84528;BME280;74768;51.152;6.196;2024-01-07T09:25:34;101518.44;;;0.49;95.43
84528;BME280;74768;51.152;6.196;2024-01-07T09:27:59;101526.28;;;0.54;93.92
84528;BME280;74768;51.152;6.196;2024-01-07T09:30:25;101526.28;;;0.51;94.33
84528;BME280;74768;51.152;6.196;2024-01-07T09:32:50;101519.34;;;0.53;93.44
84528;BME280;74768;51.152;6.196;2024-01-07T09:35:16;101529.78;;;0.56;94.44
84528;BME280;74768;51.152;6.196;2024-01-07T09:37:41;101531.59;;;0.61;93.56
84528;BME280;74768;51.152;6.196;2024-01-07T09:40:07;101542.78;;;0.56;93.57
84528;BME280;74768;51.152;6.196;2024-01-07T09:42:33;101541.97;;;0.61;93.82
84528;BME280;74768;51.152;6.196;2024-01-07T09:45:02;101537.69;;;0.66;93.82
84528;BME280;74768;51.152;6.196;2024-01-07T09:47:28;101537.78;;;0.71;92.81
84528;BME280;74768;51.152;6.196;2024-01-07T09:49:53;101546.47;;;0.73;93.12
84528;BME280;74768;51.152;6.196;2024-01-07T09:52:20;101545.66;;;0.78;91.62
84528;BME280;74768;51.152;6.196;2024-01-07T09:54:47;101550.91;;;0.83;91.73
84528;BME280;74768;51.152;6.196;2024-01-07T09:57:15;101551.66;;;0.73;91.45
84528;BME280;74768;51.152;6.196;2024-01-07T09:59:41;101554.25;;;0.74;92.43
84528;BME280;74768;51.152;6.196;2024-01-07T10:02:07;101561.09;;;0.68;92.74
84528;BME280;74768;51.152;6.196;2024-01-07T10:04:32;101557.53;;;0.60;93.93
84528;BME280;74768;51.152;6.196;2024-01-07T10:06:58;101567.00;;;0.55;93.64
84528;BME280;74768;51.152;6.196;2024-01-07T10:09:24;101560.03;;;0.52;94.18
84528;BME280;74768;51.152;6.196;2024-01-07T10:11:52;101562.59;;;0.49;94.82
84528;BME280;74768;51.152;6.196;2024-01-07T10:14:18;101565.31;;;0.57;94.18
84528;BME280;74768;51.152;6.196;2024-01-07T10:16:47;101566.16;;;0.59;94.71
84528;BME280;74768;51.152;6.196;2024-01-07T10:19:19;101565.31;;;0.57;95.00
84528;BME280;74768;51.152;6.196;2024-01-07T10:21:44;101565.31;;;0.57;94.59
84528;BME280;74768;51.152;6.196;2024-01-07T10:24:11;101567.03;;;0.59;94.50
84528;BME280;74768;51.152;6.196;2024-01-07T10:26:37;101571.34;;;0.56;95.05
84528;BME280;74768;51.152;6.196;2024-01-07T10:29:03;101576.59;;;0.62;94.15
84528;BME280;74768;51.152;6.196;2024-01-07T10:31:29;101574.84;;;0.58;95.17
84528;BME280;74768;51.152;6.196;2024-01-07T10:33:56;101575.78;;;0.66;94.81
84528;BME280;74768;51.152;6.196;2024-01-07T10:36:22;101575.78;;;0.66;94.04
84528;BME280;74768;51.152;6.196;2024-01-07T10:38:47;101581.81;;;0.62;94.72
84528;BME280;74768;51.152;6.196;2024-01-07T10:41:12;101583.53;;;0.61;93.82
84528;BME280;74768;51.152;6.196;2024-01-07T10:43:40;101580.97;;;0.63;93.48
84528;BME280;74768;51.152;6.196;2024-01-07T10:46:09;101594.81;;;0.63;93.48
84528;BME280;74768;51.152;6.196;2024-01-07T10:48:37;101588.75;;;0.63;92.36
84528;BME280;74768;51.152;6.196;2024-01-07T10:51:03;101598.25;;;0.61;92.62
84528;BME280;74768;51.152;6.196;2024-01-07T10:53:33;101590.50;;;0.64;93.82
84528;BME280;74768;51.152;6.196;2024-01-07T10:56:03;101588.91;;;0.75;93.21
84528;BME280;74768;51.152;6.196;2024-01-07T10:58:32;101591.72;;;0.92;91.93
84528;BME280;74768;51.152;6.196;2024-01-07T11:00:58;101595.94;;;0.84;90.46
84528;BME280;74768;51.152;6.196;2024-01-07T11:03:40;101587.38;;;0.92;90.76
84528;BME280;74768;51.152;6.196;2024-01-07T11:06:27;101580.53;;;0.99;90.97
84528;BME280;74768;51.152;6.196;2024-01-07T11:08:59;101588.34;;;0.99;90.87
84528;BME280;74768;51.152;6.196;2024-01-07T11:11:36;101596.16;;;1.03;90.61
84528;BME280;74768;51.152;6.196;2024-01-07T11:14:04;101592.72;;;1.04;90.20
84528;BME280;74768;51.152;6.196;2024-01-07T11:19:04;101593.50;;;0.97;90.19
84528;BME280;74768;51.152;6.196;2024-01-07T11:21:29;101591.75;;;0.93;91.57
84528;BME280;74768;51.152;6.196;2024-01-07T11:23:55;101594.34;;;0.96;91.96
84528;BME280;74768;51.152;6.196;2024-01-07T11:26:21;101600.44;;;0.98;90.71
84528;BME280;74768;51.152;6.196;2024-01-07T11:28:56;101607.34;;;0.93;89.59
84528;BME280;74768;51.152;6.196;2024-01-07T11:34:10;101598.78;;;1.02;90.30
84528;BME280;74768;51.152;6.196;2024-01-07T11:36:36;101601.47;;;1.09;89.62
84528;BME280;74768;51.152;6.196;2024-01-07T11:39:02;101598.81;;;1.06;89.15
84528;BME280;74768;51.152;6.196;2024-01-07T11:41:33;101602.25;;;1.04;87.26
84528;BME280;74768;51.152;6.196;2024-01-07T11:43:59;101609.16;;;1.00;88.21
84528;BME280;74768;51.152;6.196;2024-01-07T11:46:29;101603.97;;;1.02;88.66
84528;BME280;74768;51.152;6.196;2024-01-07T11:48:57;101610.94;;;1.06;87.22
84528;BME280;74768;51.152;6.196;2024-01-07T11:51:28;101609.28;;;1.09;87.81
84528;BME280;74768;51.152;6.196;2024-01-07T11:53:56;101604.91;;;1.10;86.93
84528;BME280;74768;51.152;6.196;2024-01-07T11:56:22;101609.16;;;1.00;86.39
84528;BME280;74768;51.152;6.196;2024-01-07T11:58:47;101612.44;;;0.86;86.97
84528;BME280;74768;51.152;6.196;2024-01-07T12:01:15;101620.25;;;0.89;87.53
84528;BME280;74768;51.152;6.196;2024-01-07T12:03:43;101626.28;;;0.85;89.53
84528;BME280;74768;51.152;6.196;2024-01-07T12:06:09;101621.94;;;0.85;87.72
84528;BME280;74768;51.152;6.196;2024-01-07T12:08:38;101622.75;;;0.80;87.62
84528;BME280;74768;51.152;6.196;2024-01-07T12:11:04;101621.88;;;0.79;87.28
84528;BME280;74768;51.152;6.196;2024-01-07T12:13:30;101622.66;;;0.75;87.15
84528;BME280;74768;51.152;6.196;2024-01-07T12:15:56;101623.53;;;0.72;87.91
84528;BME280;74768;51.152;6.196;2024-01-07T12:18:22;101630.50;;;0.76;86.44
84528;BME280;74768;51.152;6.196;2024-01-07T12:20:56;101627.03;;;0.77;88.90
84528;BME280;74768;51.152;6.196;2024-01-07T12:23:23;101631.41;;;0.80;88.65
84528;BME280;74768;51.152;6.196;2024-01-07T12:25:48;101634.88;;;0.79;86.49
84528;BME280;74768;51.152;6.196;2024-01-07T12:28:14;101632.09;;;0.67;86.03
84528;BME280;74768;51.152;6.196;2024-01-07T12:30:39;101640.78;;;0.69;86.80
84528;BME280;74768;51.152;6.196;2024-01-07T12:33:05;101646.03;;;0.72;87.61
84528;BME280;74768;51.152;6.196;2024-01-07T12:35:30;101644.31;;;0.72;85.26
84528;BME280;74768;51.152;6.196;2024-01-07T12:37:56;101653.72;;;0.64;86.20
84528;BME280;74768;51.152;6.196;2024-01-07T12:40:21;101645.94;;;0.67;84.88
84528;BME280;74768;51.152;6.196;2024-01-07T12:42:49;101646.91;;;0.74;86.98
84528;BME280;74768;51.152;6.196;2024-01-07T12:45:14;101647.03;;;0.83;84.95
84528;BME280;74768;51.152;6.196;2024-01-07T12:47:41;101655.53;;;0.71;84.07
84528;BME280;74768;51.152;6.196;2024-01-07T12:50:08;101655.47;;;0.65;84.93
84528;BME280;74768;51.152;6.196;2024-01-07T12:52:37;101652.75;;;0.59;85.48
84528;BME280;74768;51.152;6.196;2024-01-07T12:55:03;101664.00;;;0.57;84.81
84528;BME280;74768;51.152;6.196;2024-01-07T12:57:29;101670.72;;;0.46;84.86
84528;BME280;74768;51.152;6.196;2024-01-07T12:59:54;101665.41;;;0.38;84.69